ENMS/MJF METAR and TAF weather

Enter ICAO airport designator
Station Type Date Time Source
ENMS METAR 2020/08/14 17:20 UTC NOAA

ENMS 141720Z 21009KT 170V260 9999 FEW023 BKN030 15/09 Q1012 RMK WIND 412FT 17010KT 100V220


Station Type Date Time Source
ENMS Decoded METAR 2020/08/14 17:20 UTC NOAA

Mosjoen Kjaerstad, Norway (ENMS) 65-48N 013-08E
Aug 14, 2020 - 01:20 PM EDT / 2020.08.14 1720 UTC
Wind: from the SSW (210 degrees) at 10 MPH (9 KT) (direction variable):0
Visibility: greater than 7 mile(s):0
Sky conditions: mostly cloudy
Temperature: 59 F (15 C)
Dew Point: 48 F (9 C)
Relative Humidity: 67%
Pressure (altimeter): 29.88 in. Hg (1012 hPa)
ob: ENMS 141720Z 21009KT 170V260 9999 FEW023 BKN030 15/09 Q1012 RMK WIND 412FT 17010KT 100V220
cycle: 17

Station Type Date Time Source
ENMS TAF UTC NOAA

Error!

Example: see airport list